sensor_id;sensor_type;location;lat;lon;timestamp;P1;durP1;ratioP1;P2;durP2;ratioP2
74715;SDS011;63234;37.558;127.058;2024-01-27T00:00:04;259.67;;;144.25;;
74715;SDS011;63234;37.558;127.058;2024-01-27T00:02:30;279.27;;;146.32;;
74715;SDS011;63234;37.558;127.058;2024-01-27T00:04:55;272.35;;;147.20;;
74715;SDS011;63234;37.558;127.058;2024-01-27T00:07:21;280.15;;;145.80;;
74715;SDS011;63234;37.558;127.058;2024-01-27T00:09:46;281.10;;;147.23;;
74715;SDS011;63234;37.558;127.058;2024-01-27T00:12:12;262.05;;;145.75;;
74715;SDS011;63234;37.558;127.058;2024-01-27T00:14:38;271.15;;;144.15;;
74715;SDS011;63234;37.558;127.058;2024-01-27T00:17:03;275.25;;;146.02;;
74715;SDS011;63234;37.558;127.058;2024-01-27T00:19:29;272.10;;;144.55;;
74715;SDS011;63234;37.558;127.058;2024-01-27T00:21:54;272.40;;;144.88;;
74715;SDS011;63234;37.558;127.058;2024-01-27T00:24:19;276.02;;;145.77;;
74715;SDS011;63234;37.558;127.058;2024-01-27T00:26:45;293.88;;;153.35;;
74715;SDS011;63234;37.558;127.058;2024-01-27T00:29:10;276.30;;;153.45;;
74715;SDS011;63234;37.558;127.058;2024-01-27T00:31:36;271.10;;;144.32;;
74715;SDS011;63234;37.558;127.058;2024-01-27T00:34:01;273.40;;;145.07;;
74715;SDS011;63234;37.558;127.058;2024-01-27T00:36:27;266.90;;;144.52;;
74715;SDS011;63234;37.558;127.058;2024-01-27T00:38:52;270.00;;;143.88;;
74715;SDS011;63234;37.558;127.058;2024-01-27T00:41:18;274.20;;;146.27;;
74715;SDS011;63234;37.558;127.058;2024-01-27T00:43:44;281.98;;;149.90;;
74715;SDS011;63234;37.558;127.058;2024-01-27T00:46:09;271.70;;;145.07;;
74715;SDS011;63234;37.558;127.058;2024-01-27T00:48:34;275.98;;;146.40;;
74715;SDS011;63234;37.558;127.058;2024-01-27T00:51:00;268.60;;;146.18;;
74715;SDS011;63234;37.558;127.058;2024-01-27T00:53:25;266.65;;;146.18;;
74715;SDS011;63234;37.558;127.058;2024-01-27T00:55:50;288.02;;;152.18;;
74715;SDS011;63234;37.558;127.058;2024-01-27T00:58:16;269.42;;;150.55;;
74715;SDS011;63234;37.558;127.058;2024-01-27T01:00:41;261.42;;;146.00;;
74715;SDS011;63234;37.558;127.058;2024-01-27T01:03:07;249.68;;;141.43;;
74715;SDS011;63234;37.558;127.058;2024-01-27T01:05:32;267.00;;;143.32;;
74715;SDS011;63234;37.558;127.058;2024-01-27T01:07:57;275.42;;;147.07;;
74715;SDS011;63234;37.558;127.058;2024-01-27T01:10:23;274.00;;;152.60;;
74715;SDS011;63234;37.558;127.058;2024-01-27T01:12:48;283.38;;;150.75;;
74715;SDS011;63234;37.558;127.058;2024-01-27T01:15:13;283.00;;;150.90;;
74715;SDS011;63234;37.558;127.058;2024-01-27T01:17:39;282.90;;;150.75;;
74715;SDS011;63234;37.558;127.058;2024-01-27T01:20:04;253.65;;;139.25;;
74715;SDS011;63234;37.558;127.058;2024-01-27T01:22:30;267.52;;;144.15;;
74715;SDS011;63234;37.558;127.058;2024-01-27T01:24:56;271.70;;;149.93;;
74715;SDS011;63234;37.558;127.058;2024-01-27T01:27:21;277.52;;;149.27;;
74715;SDS011;63234;37.558;127.058;2024-01-27T01:29:46;256.15;;;141.10;;
74715;SDS011;63234;37.558;127.058;2024-01-27T01:32:12;258.90;;;142.23;;
74715;SDS011;63234;37.558;127.058;2024-01-27T01:34:37;255.73;;;140.68;;
74715;SDS011;63234;37.558;127.058;2024-01-27T01:37:02;239.77;;;135.60;;
74715;SDS011;63234;37.558;127.058;2024-01-27T01:39:28;252.10;;;134.82;;
74715;SDS011;63234;37.558;127.058;2024-01-27T01:41:54;234.73;;;137.43;;
74715;SDS011;63234;37.558;127.058;2024-01-27T01:44:19;247.15;;;134.68;;
74715;SDS011;63234;37.558;127.058;2024-01-27T01:46:45;235.80;;;138.27;;
74715;SDS011;63234;37.558;127.058;2024-01-27T01:49:10;242.75;;;141.05;;
74715;SDS011;63234;37.558;127.058;2024-01-27T01:51:36;251.40;;;140.00;;
74715;SDS011;63234;37.558;127.058;2024-01-27T01:54:01;253.73;;;140.60;;
74715;SDS011;63234;37.558;127.058;2024-01-27T01:56:27;251.15;;;140.15;;
74715;SDS011;63234;37.558;127.058;2024-01-27T01:58:54;254.90;;;142.35;;
74715;SDS011;63234;37.558;127.058;2024-01-27T02:01:19;255.18;;;141.50;;
74715;SDS011;63234;37.558;127.058;2024-01-27T02:03:55;248.88;;;145.20;;
74715;SDS011;63234;37.558;127.058;2024-01-27T02:06:22;246.48;;;145.52;;
74715;SDS011;63234;37.558;127.058;2024-01-27T02:08:48;247.70;;;143.32;;
74715;SDS011;63234;37.558;127.058;2024-01-27T02:11:13;266.38;;;147.82;;
74715;SDS011;63234;37.558;127.058;2024-01-27T02:13:38;256.15;;;148.52;;
74715;SDS011;63234;37.558;127.058;2024-01-27T02:16:04;263.40;;;146.35;;
74715;SDS011;63234;37.558;127.058;2024-01-27T02:18:30;276.55;;;149.15;;
74715;SDS011;63234;37.558;127.058;2024-01-27T02:20:56;262.65;;;148.02;;
74715;SDS011;63234;37.558;127.058;2024-01-27T02:23:22;264.67;;;149.18;;
74715;SDS011;63234;37.558;127.058;2024-01-27T02:25:47;257.17;;;152.57;;
74715;SDS011;63234;37.558;127.058;2024-01-27T02:28:12;268.38;;;151.98;;
74715;SDS011;63234;37.558;127.058;2024-01-27T02:30:38;260.05;;;151.73;;
74715;SDS011;63234;37.558;127.058;2024-01-27T02:33:04;267.17;;;150.70;;
74715;SDS011;63234;37.558;127.058;2024-01-27T02:35:29;266.38;;;154.48;;
74715;SDS011;63234;37.558;127.058;2024-01-27T02:37:55;253.35;;;153.10;;
74715;SDS011;63234;37.558;127.058;2024-01-27T02:40:20;278.70;;;157.60;;
74715;SDS011;63234;37.558;127.058;2024-01-27T02:42:46;274.13;;;155.32;;
74715;SDS011;63234;37.558;127.058;2024-01-27T02:45:11;271.60;;;154.82;;
74715;SDS011;63234;37.558;127.058;2024-01-27T02:47:37;264.80;;;154.18;;
74715;SDS011;63234;37.558;127.058;2024-01-27T02:50:03;257.45;;;147.75;;
74715;SDS011;63234;37.558;127.058;2024-01-27T02:52:29;259.88;;;151.80;;
74715;SDS011;63234;37.558;127.058;2024-01-27T02:54:54;259.48;;;149.43;;
74715;SDS011;63234;37.558;127.058;2024-01-27T02:57:20;264.42;;;150.75;;
74715;SDS011;63234;37.558;127.058;2024-01-27T02:59:46;270.02;;;154.32;;
74715;SDS011;63234;37.558;127.058;2024-01-27T03:02:12;269.23;;;154.52;;
74715;SDS011;63234;37.558;127.058;2024-01-27T03:04:37;266.73;;;157.43;;
74715;SDS011;63234;37.558;127.058;2024-01-27T03:07:02;271.33;;;155.25;;
74715;SDS011;63234;37.558;127.058;2024-01-27T03:09:28;266.17;;;157.98;;
74715;SDS011;63234;37.558;127.058;2024-01-27T03:11:53;274.90;;;157.85;;
74715;SDS011;63234;37.558;127.058;2024-01-27T03:14:19;267.33;;;156.82;;
74715;SDS011;63234;37.558;127.058;2024-01-27T03:16:44;265.50;;;156.23;;
74715;SDS011;63234;37.558;127.058;2024-01-27T03:19:10;271.48;;;156.25;;
74715;SDS011;63234;37.558;127.058;2024-01-27T03:21:35;270.40;;;156.30;;
74715;SDS011;63234;37.558;127.058;2024-01-27T03:24:01;270.90;;;156.27;;
74715;SDS011;63234;37.558;127.058;2024-01-27T03:26:26;268.42;;;159.20;;
74715;SDS011;63234;37.558;127.058;2024-01-27T03:28:52;279.80;;;161.73;;
74715;SDS011;63234;37.558;127.058;2024-01-27T03:31:17;268.05;;;161.23;;
74715;SDS011;63234;37.558;127.058;2024-01-27T03:33:42;277.35;;;161.63;;
74715;SDS011;63234;37.558;127.058;2024-01-27T03:36:11;266.73;;;159.40;;
74715;SDS011;63234;37.558;127.058;2024-01-27T03:38:37;270.50;;;156.60;;
74715;SDS011;63234;37.558;127.058;2024-01-27T03:41:04;272.75;;;158.38;;
74715;SDS011;63234;37.558;127.058;2024-01-27T03:43:29;265.83;;;158.45;;
74715;SDS011;63234;37.558;127.058;2024-01-27T03:45:56;275.88;;;160.38;;
74715;SDS011;63234;37.558;127.058;2024-01-27T03:48:22;268.15;;;160.52;;
74715;SDS011;63234;37.558;127.058;2024-01-27T03:50:47;278.33;;;161.85;;
74715;SDS011;63234;37.558;127.058;2024-01-27T03:53:12;278.55;;;161.82;;
74715;SDS011;63234;37.558;127.058;2024-01-27T03:55:38;267.88;;;155.63;;
74715;SDS011;63234;37.558;127.058;2024-01-27T03:58:03;269.67;;;157.60;;
74715;SDS011;63234;37.558;127.058;2024-01-27T04:00:28;274.80;;;159.60;;
74715;SDS011;63234;37.558;127.058;2024-01-27T04:02:57;271.55;;;158.10;;
74715;SDS011;63234;37.558;127.058;2024-01-27T04:05:23;272.60;;;158.30;;
74715;SDS011;63234;37.558;127.058;2024-01-27T04:07:48;274.98;;;159.63;;
74715;SDS011;63234;37.558;127.058;2024-01-27T04:10:16;281.50;;;164.85;;
74715;SDS011;63234;37.558;127.058;2024-01-27T04:12:42;271.50;;;165.40;;
74715;SDS011;63234;37.558;127.058;2024-01-27T04:15:08;286.33;;;167.07;;
74715;SDS011;63234;37.558;127.058;2024-01-27T04:17:33;271.48;;;165.45;;
74715;SDS011;63234;37.558;127.058;2024-01-27T04:19:59;286.33;;;166.95;;
74715;SDS011;63234;37.558;127.058;2024-01-27T04:22:24;285.13;;;167.55;;
74715;SDS011;63234;37.558;127.058;2024-01-27T04:24:49;300.90;;;176.82;;
74715;SDS011;63234;37.558;127.058;2024-01-27T04:27:15;299.63;;;177.10;;
74715;SDS011;63234;37.558;127.058;2024-01-27T04:29:40;298.77;;;176.52;;
74715;SDS011;63234;37.558;127.058;2024-01-27T04:32:07;299.50;;;182.90;;
74715;SDS011;63234;37.558;127.058;2024-01-27T04:34:32;343.40;;;213.75;;
74715;SDS011;63234;37.558;127.058;2024-01-27T04:36:57;332.85;;;199.82;;
74715;SDS011;63234;37.558;127.058;2024-01-27T04:39:23;305.40;;;195.13;;
74715;SDS011;63234;37.558;127.058;2024-01-27T04:41:48;307.05;;;193.85;;
74715;SDS011;63234;37.558;127.058;2024-01-27T04:44:14;315.92;;;188.70;;
74715;SDS011;63234;37.558;127.058;2024-01-27T04:46:39;309.55;;;196.23;;
74715;SDS011;63234;37.558;127.058;2024-01-27T04:49:04;318.10;;;191.32;;
74715;SDS011;63234;37.558;127.058;2024-01-27T04:51:30;334.15;;;201.52;;
74715;SDS011;63234;37.558;127.058;2024-01-27T04:53:55;310.33;;;187.15;;
74715;SDS011;63234;37.558;127.058;2024-01-27T04:56:20;301.00;;;192.95;;
74715;SDS011;63234;37.558;127.058;2024-01-27T04:58:46;314.30;;;189.82;;
74715;SDS011;63234;37.558;127.058;2024-01-27T05:01:11;312.10;;;189.18;;
74715;SDS011;63234;37.558;127.058;2024-01-27T05:03:36;299.33;;;191.95;;
74715;SDS011;63234;37.558;127.058;2024-01-27T05:06:02;320.35;;;198.02;;
74715;SDS011;63234;37.558;127.058;2024-01-27T05:08:28;339.17;;;208.02;;
74715;SDS011;63234;37.558;127.058;2024-01-27T05:10:53;362.25;;;232.10;;
74715;SDS011;63234;37.558;127.058;2024-01-27T05:13:19;333.33;;;221.27;;
74715;SDS011;63234;37.558;127.058;2024-01-27T05:15:44;337.35;;;214.60;;
74715;SDS011;63234;37.558;127.058;2024-01-27T05:18:10;345.60;;;211.52;;
74715;SDS011;63234;37.558;127.058;2024-01-27T05:20:36;329.85;;;207.93;;
74715;SDS011;63234;37.558;127.058;2024-01-27T05:23:02;340.75;;;209.88;;
74715;SDS011;63234;37.558;127.058;2024-01-27T05:25:27;342.38;;;210.13;;
74715;SDS011;63234;37.558;127.058;2024-01-27T05:27:52;330.05;;;210.93;;
74715;SDS011;63234;37.558;127.058;2024-01-27T05:30:17;321.13;;;212.07;;
74715;SDS011;63234;37.558;127.058;2024-01-27T05:32:43;318.00;;;207.30;;
74715;SDS011;63234;37.558;127.058;2024-01-27T05:35:08;294.58;;;190.80;;
74715;SDS011;63234;37.558;127.058;2024-01-27T05:37:35;309.88;;;190.75;;
74715;SDS011;63234;37.558;127.058;2024-01-27T05:40:00;323.75;;;206.20;;
74715;SDS011;63234;37.558;127.058;2024-01-27T05:42:27;315.55;;;198.88;;
74715;SDS011;63234;37.558;127.058;2024-01-27T05:44:52;338.98;;;210.10;;
74715;SDS011;63234;37.558;127.058;2024-01-27T05:47:18;307.50;;;189.02;;
74715;SDS011;63234;37.558;127.058;2024-01-27T05:49:43;296.35;;;181.65;;
74715;SDS011;63234;37.558;127.058;2024-01-27T05:52:08;297.63;;;182.40;;
74715;SDS011;63234;37.558;127.058;2024-01-27T05:54:34;299.15;;;183.38;;
74715;SDS011;63234;37.558;127.058;2024-01-27T05:56:59;300.77;;;184.52;;
74715;SDS011;63234;37.558;127.058;2024-01-27T05:59:25;280.77;;;186.40;;
74715;SDS011;63234;37.558;127.058;2024-01-27T06:01:50;303.60;;;185.65;;
74715;SDS011;63234;37.558;127.058;2024-01-27T06:04:16;304.73;;;187.85;;
74715;SDS011;63234;37.558;127.058;2024-01-27T06:06:41;287.75;;;190.40;;
74715;SDS011;63234;37.558;127.058;2024-01-27T06:09:07;311.45;;;192.98;;
74715;SDS011;63234;37.558;127.058;2024-01-27T06:11:36;313.80;;;193.52;;
74715;SDS011;63234;37.558;127.058;2024-01-27T06:14:02;313.20;;;193.32;;
74715;SDS011;63234;37.558;127.058;2024-01-27T06:16:27;308.08;;;193.63;;
74715;SDS011;63234;37.558;127.058;2024-01-27T06:18:52;291.50;;;194.25;;
74715;SDS011;63234;37.558;127.058;2024-01-27T06:21:19;304.85;;;193.85;;
74715;SDS011;63234;37.558;127.058;2024-01-27T06:23:45;287.42;;;183.38;;
74715;SDS011;63234;37.558;127.058;2024-01-27T06:26:12;310.27;;;192.60;;
74715;SDS011;63234;37.558;127.058;2024-01-27T06:28:38;285.05;;;192.32;;
74715;SDS011;63234;37.558;127.058;2024-01-27T06:31:04;304.73;;;196.13;;
74715;SDS011;63234;37.558;127.058;2024-01-27T06:33:29;309.33;;;191.65;;
74715;SDS011;63234;37.558;127.058;2024-01-27T06:35:55;304.77;;;190.15;;
74715;SDS011;63234;37.558;127.058;2024-01-27T06:38:20;310.52;;;193.07;;
74715;SDS011;63234;37.558;127.058;2024-01-27T06:40:46;292.77;;;195.30;;
74715;SDS011;63234;37.558;127.058;2024-01-27T06:43:12;295.47;;;199.73;;
74715;SDS011;63234;37.558;127.058;2024-01-27T06:45:38;325.80;;;205.52;;
74715;SDS011;63234;37.558;127.058;2024-01-27T06:48:04;339.80;;;214.90;;
74715;SDS011;63234;37.558;127.058;2024-01-27T06:50:30;321.00;;;217.20;;
74715;SDS011;63234;37.558;127.058;2024-01-27T06:52:56;303.60;;;203.18;;
74715;SDS011;63234;37.558;127.058;2024-01-27T06:55:21;288.38;;;179.82;;
74715;SDS011;63234;37.558;127.058;2024-01-27T06:57:46;202.68;;;136.73;;
74715;SDS011;63234;37.558;127.058;2024-01-27T07:00:12;200.93;;;137.27;;
74715;SDS011;63234;37.558;127.058;2024-01-27T07:02:39;185.85;;;123.85;;
74715;SDS011;63234;37.558;127.058;2024-01-27T07:05:05;165.63;;;116.93;;
74715;SDS011;63234;37.558;127.058;2024-01-27T07:07:31;181.50;;;119.88;;
74715;SDS011;63234;37.558;127.058;2024-01-27T07:09:57;171.38;;;120.20;;
74715;SDS011;63234;37.558;127.058;2024-01-27T07:12:22;175.85;;;118.55;;
74715;SDS011;63234;37.558;127.058;2024-01-27T07:14:48;170.13;;;118.68;;
74715;SDS011;63234;37.558;127.058;2024-01-27T07:17:13;167.88;;;119.03;;
74715;SDS011;63234;37.558;127.058;2024-01-27T07:19:39;167.00;;;116.45;;
74715;SDS011;63234;37.558;127.058;2024-01-27T07:22:04;160.07;;;114.60;;
74715;SDS011;63234;37.558;127.058;2024-01-27T07:24:30;155.00;;;114.00;;
74715;SDS011;63234;37.558;127.058;2024-01-27T07:26:55;157.52;;;114.15;;
74715;SDS011;63234;37.558;127.058;2024-01-27T07:29:21;157.45;;;113.72;;
74715;SDS011;63234;37.558;127.058;2024-01-27T07:31:46;152.63;;;109.90;;
74715;SDS011;63234;37.558;127.058;2024-01-27T07:34:12;160.55;;;110.40;;
74715;SDS011;63234;37.558;127.058;2024-01-27T07:36:38;162.70;;;111.45;;
74715;SDS011;63234;37.558;127.058;2024-01-27T07:39:04;153.95;;;108.25;;
74715;SDS011;63234;37.558;127.058;2024-01-27T07:41:32;161.23;;;113.75;;
74715;SDS011;63234;37.558;127.058;2024-01-27T07:44:06;169.48;;;115.63;;
74715;SDS011;63234;37.558;127.058;2024-01-27T07:46:41;168.77;;;115.50;;
74715;SDS011;63234;37.558;127.058;2024-01-27T07:49:07;166.02;;;116.40;;
74715;SDS011;63234;37.558;127.058;2024-01-27T07:51:33;161.15;;;110.80;;
74715;SDS011;63234;37.558;127.058;2024-01-27T07:53:59;138.90;;;101.70;;
74715;SDS011;63234;37.558;127.058;2024-01-27T07:56:25;137.27;;;99.78;;
74715;SDS011;63234;37.558;127.058;2024-01-27T07:58:50;139.75;;;99.38;;
74715;SDS011;63234;37.558;127.058;2024-01-27T08:01:16;144.30;;;99.90;;
74715;SDS011;63234;37.558;127.058;2024-01-27T08:03:42;153.15;;;98.85;;
74715;SDS011;63234;37.558;127.058;2024-01-27T08:06:14;136.32;;;98.20;;
74715;SDS011;63234;37.558;127.058;2024-01-27T08:08:41;140.75;;;98.80;;
74715;SDS011;63234;37.558;127.058;2024-01-27T08:11:08;141.27;;;97.75;;
74715;SDS011;63234;37.558;127.058;2024-01-27T08:13:34;126.78;;;93.32;;
74715;SDS011;63234;37.558;127.058;2024-01-27T08:15:59;125.07;;;91.13;;
74715;SDS011;63234;37.558;127.058;2024-01-27T08:18:24;132.88;;;93.50;;
74715;SDS011;63234;37.558;127.058;2024-01-27T08:20:49;127.07;;;94.07;;
74715;SDS011;63234;37.558;127.058;2024-01-27T08:23:15;144.55;;;98.55;;
74715;SDS011;63234;37.558;127.058;2024-01-27T08:25:40;153.73;;;100.60;;
74715;SDS011;63234;37.558;127.058;2024-01-27T08:28:06;147.27;;;97.40;;
74715;SDS011;63234;37.558;127.058;2024-01-27T08:30:31;155.05;;;100.85;;
74715;SDS011;63234;37.558;127.058;2024-01-27T08:32:57;162.45;;;103.68;;
74715;SDS011;63234;37.558;127.058;2024-01-27T08:35:22;155.15;;;100.25;;
74715;SDS011;63234;37.558;127.058;2024-01-27T08:37:47;150.77;;;99.20;;
74715;SDS011;63234;37.558;127.058;2024-01-27T08:40:13;147.80;;;97.30;;
74715;SDS011;63234;37.558;127.058;2024-01-27T08:42:39;153.23;;;97.55;;
74715;SDS011;63234;37.558;127.058;2024-01-27T08:45:05;149.63;;;93.38;;
74715;SDS011;63234;37.558;127.058;2024-01-27T08:47:31;147.40;;;92.18;;
74715;SDS011;63234;37.558;127.058;2024-01-27T08:49:56;161.05;;;96.70;;
74715;SDS011;63234;37.558;127.058;2024-01-27T08:52:22;146.00;;;90.43;;
74715;SDS011;63234;37.558;127.058;2024-01-27T08:54:47;150.57;;;91.35;;
74715;SDS011;63234;37.558;127.058;2024-01-27T08:57:13;150.77;;;92.90;;
74715;SDS011;63234;37.558;127.058;2024-01-27T08:59:38;153.05;;;92.30;;
74715;SDS011;63234;37.558;127.058;2024-01-27T09:02:03;163.68;;;96.88;;
74715;SDS011;63234;37.558;127.058;2024-01-27T09:04:29;160.40;;;97.20;;
74715;SDS011;63234;37.558;127.058;2024-01-27T09:06:54;143.50;;;89.85;;
74715;SDS011;63234;37.558;127.058;2024-01-27T09:09:19;143.35;;;90.15;;
74715;SDS011;63234;37.558;127.058;2024-01-27T09:11:44;144.32;;;89.45;;
74715;SDS011;63234;37.558;127.058;2024-01-27T09:14:11;144.02;;;89.15;;
74715;SDS011;63234;37.558;127.058;2024-01-27T09:16:36;148.15;;;89.90;;
74715;SDS011;63234;37.558;127.058;2024-01-27T09:19:02;150.30;;;89.18;;
74715;SDS011;63234;37.558;127.058;2024-01-27T09:21:27;138.80;;;86.43;;
74715;SDS011;63234;37.558;127.058;2024-01-27T09:23:57;134.90;;;84.72;;
74715;SDS011;63234;37.558;127.058;2024-01-27T09:26:23;137.13;;;85.22;;
74715;SDS011;63234;37.558;127.058;2024-01-27T09:28:48;139.65;;;87.03;;
74715;SDS011;63234;37.558;127.058;2024-01-27T09:31:22;152.05;;;93.45;;
74715;SDS011;63234;37.558;127.058;2024-01-27T09:33:51;153.40;;;92.97;;
74715;SDS011;63234;37.558;127.058;2024-01-27T09:36:18;152.32;;;92.57;;
74715;SDS011;63234;37.558;127.058;2024-01-27T09:38:44;153.40;;;91.97;;
74715;SDS011;63234;37.558;127.058;2024-01-27T09:41:10;162.48;;;96.30;;
74715;SDS011;63234;37.558;127.058;2024-01-27T09:43:37;164.23;;;96.93;;
74715;SDS011;63234;37.558;127.058;2024-01-27T09:46:07;144.18;;;87.75;;
74715;SDS011;63234;37.558;127.058;2024-01-27T09:48:33;148.35;;;89.72;;
74715;SDS011;63234;37.558;127.058;2024-01-27T09:51:01;137.48;;;83.25;;
74715;SDS011;63234;37.558;127.058;2024-01-27T09:53:28;134.13;;;84.72;;
74715;SDS011;63234;37.558;127.058;2024-01-27T09:55:54;146.27;;;88.90;;
74715;SDS011;63234;37.558;127.058;2024-01-27T09:58:23;145.50;;;88.07;;
74715;SDS011;63234;37.558;127.058;2024-01-27T10:00:53;139.35;;;86.57;;
74715;SDS011;63234;37.558;127.058;2024-01-27T10:03:22;137.25;;;85.10;;
74715;SDS011;63234;37.558;127.058;2024-01-27T10:05:48;144.48;;;88.50;;
74715;SDS011;63234;37.558;127.058;2024-01-27T10:08:15;124.43;;;80.15;;
74715;SDS011;63234;37.558;127.058;2024-01-27T10:10:40;125.32;;;80.63;;
74715;SDS011;63234;37.558;127.058;2024-01-27T10:13:05;131.63;;;83.57;;
74715;SDS011;63234;37.558;127.058;2024-01-27T10:15:32;112.72;;;75.40;;
74715;SDS011;63234;37.558;127.058;2024-01-27T10:18:04;113.65;;;74.70;;
74715;SDS011;63234;37.558;127.058;2024-01-27T10:20:31;105.28;;;69.95;;
74715;SDS011;63234;37.558;127.058;2024-01-27T10:22:57;109.80;;;73.95;;
74715;SDS011;63234;37.558;127.058;2024-01-27T10:25:22;118.20;;;76.63;;
74715;SDS011;63234;37.558;127.058;2024-01-27T10:27:48;122.13;;;78.32;;
74715;SDS011;63234;37.558;127.058;2024-01-27T10:30:17;120.57;;;76.75;;
74715;SDS011;63234;37.558;127.058;2024-01-27T10:32:43;123.85;;;79.95;;
74715;SDS011;63234;37.558;127.058;2024-01-27T10:35:19;117.38;;;75.10;;
74715;SDS011;63234;37.558;127.058;2024-01-27T10:37:45;124.45;;;79.95;;
74715;SDS011;63234;37.558;127.058;2024-01-27T10:40:10;123.55;;;81.10;;
74715;SDS011;63234;37.558;127.058;2024-01-27T10:42:37;134.27;;;83.03;;
74715;SDS011;63234;37.558;127.058;2024-01-27T10:45:03;130.40;;;83.55;;
74715;SDS011;63234;37.558;127.058;2024-01-27T10:47:30;108.40;;;71.50;;
74715;SDS011;63234;37.558;127.058;2024-01-27T10:49:56;24.35;;;20.40;;
74715;SDS011;63234;37.558;127.058;2024-01-27T10:52:23;16.20;;;12.48;;
74715;SDS011;63234;37.558;127.058;2024-01-27T10:54:55;10.32;;;6.90;;
74715;SDS011;63234;37.558;127.058;2024-01-27T10:57:23;11.68;;;7.28;;
74715;SDS011;63234;37.558;127.058;2024-01-27T10:59:50;56.72;;;50.63;;
74715;SDS011;63234;37.558;127.058;2024-01-27T11:02:18;121.15;;;73.88;;
74715;SDS011;63234;37.558;127.058;2024-01-27T11:04:44;68.15;;;56.80;;
74715;SDS011;63234;37.558;127.058;2024-01-27T11:07:11;79.68;;;61.35;;
74715;SDS011;63234;37.558;127.058;2024-01-27T11:09:37;92.25;;;67.63;;
74715;SDS011;63234;37.558;127.058;2024-01-27T11:12:03;107.70;;;73.65;;
74715;SDS011;63234;37.558;127.058;2024-01-27T11:14:31;122.15;;;79.07;;
74715;SDS011;63234;37.558;127.058;2024-01-27T11:16:56;118.03;;;77.53;;
74715;SDS011;63234;37.558;127.058;2024-01-27T11:19:23;115.05;;;74.38;;
74715;SDS011;63234;37.558;127.058;2024-01-27T11:21:59;102.97;;;72.00;;
74715;SDS011;63234;37.558;127.058;2024-01-27T11:24:25;253.90;;;125.30;;
74715;SDS011;63234;37.558;127.058;2024-01-27T11:26:59;199.70;;;107.78;;
74715;SDS011;63234;37.558;127.058;2024-01-27T11:29:28;184.65;;;101.30;;
74715;SDS011;63234;37.558;127.058;2024-01-27T11:31:56;143.32;;;87.45;;
74715;SDS011;63234;37.558;127.058;2024-01-27T11:34:23;158.40;;;92.68;;
74715;SDS011;63234;37.558;127.058;2024-01-27T11:36:48;88.28;;;65.50;;
74715;SDS011;63234;37.558;127.058;2024-01-27T11:39:29;172.73;;;97.13;;
74715;SDS011;63234;37.558;127.058;2024-01-27T11:42:11;149.68;;;88.18;;
74715;SDS011;63234;37.558;127.058;2024-01-27T11:44:41;143.43;;;87.50;;
74715;SDS011;63234;37.558;127.058;2024-01-27T11:47:13;177.95;;;99.38;;
74715;SDS011;63234;37.558;127.058;2024-01-27T11:49:43;171.18;;;97.15;;
74715;SDS011;63234;37.558;127.058;2024-01-27T11:52:16;179.65;;;100.13;;
74715;SDS011;63234;37.558;127.058;2024-01-27T11:54:42;197.18;;;105.78;;
74715;SDS011;63234;37.558;127.058;2024-01-27T11:57:08;198.95;;;106.80;;
74715;SDS011;63234;37.558;127.058;2024-01-27T11:59:33;192.60;;;104.10;;
74715;SDS011;63234;37.558;127.058;2024-01-27T12:02:00;163.75;;;93.97;;
74715;SDS011;63234;37.558;127.058;2024-01-27T12:04:26;240.05;;;119.15;;
74715;SDS011;63234;37.558;127.058;2024-01-27T12:06:52;386.63;;;166.02;;
74715;SDS011;63234;37.558;127.058;2024-01-27T12:09:18;407.23;;;170.82;;
74715;SDS011;63234;37.558;127.058;2024-01-27T12:11:44;397.02;;;167.98;;
74715;SDS011;63234;37.558;127.058;2024-01-27T12:14:10;276.05;;;124.95;;
74715;SDS011;63234;37.558;127.058;2024-01-27T12:16:36;422.33;;;173.80;;
74715;SDS011;63234;37.558;127.058;2024-01-27T12:19:01;433.13;;;180.75;;
74715;SDS011;63234;37.558;127.058;2024-01-27T12:21:27;438.60;;;181.77;;
74715;SDS011;63234;37.558;127.058;2024-01-27T12:23:53;209.40;;;103.85;;
74715;SDS011;63234;37.558;127.058;2024-01-27T12:26:20;404.42;;;165.63;;
74715;SDS011;63234;37.558;127.058;2024-01-27T12:28:50;457.98;;;188.55;;
74715;SDS011;63234;37.558;127.058;2024-01-27T12:31:16;454.30;;;186.43;;
74715;SDS011;63234;37.558;127.058;2024-01-27T12:33:53;370.35;;;153.25;;
74715;SDS011;63234;37.558;127.058;2024-01-27T12:36:20;386.17;;;161.18;;
74715;SDS011;63234;37.558;127.058;2024-01-27T12:38:47;384.00;;;158.88;;
74715;SDS011;63234;37.558;127.058;2024-01-27T12:41:32;378.35;;;160.02;;
74715;SDS011;63234;37.558;127.058;2024-01-27T12:43:58;386.65;;;159.68;;
74715;SDS011;63234;37.558;127.058;2024-01-27T12:46:24;382.05;;;161.63;;
74715;SDS011;63234;37.558;127.058;2024-01-27T12:48:49;390.75;;;162.80;;
74715;SDS011;63234;37.558;127.058;2024-01-27T12:51:15;400.20;;;167.40;;
74715;SDS011;63234;37.558;127.058;2024-01-27T12:53:41;399.00;;;169.85;;
74715;SDS011;63234;37.558;127.058;2024-01-27T12:56:09;421.75;;;179.00;;
74715;SDS011;63234;37.558;127.058;2024-01-27T12:58:36;432.17;;;184.20;;
74715;SDS011;63234;37.558;127.058;2024-01-27T13:01:02;432.40;;;184.88;;
74715;SDS011;63234;37.558;127.058;2024-01-27T13:03:27;428.65;;;187.57;;
74715;SDS011;63234;37.558;127.058;2024-01-27T13:05:53;431.85;;;189.27;;
74715;SDS011;63234;37.558;127.058;2024-01-27T13:08:19;391.85;;;169.70;;
74715;SDS011;63234;37.558;127.058;2024-01-27T13:10:45;395.02;;;170.70;;
74715;SDS011;63234;37.558;127.058;2024-01-27T13:13:10;389.17;;;170.50;;
74715;SDS011;63234;37.558;127.058;2024-01-27T13:15:36;390.13;;;172.98;;
74715;SDS011;63234;37.558;127.058;2024-01-27T13:18:01;379.40;;;164.95;;
74715;SDS011;63234;37.558;127.058;2024-01-27T13:20:27;371.13;;;165.40;;
74715;SDS011;63234;37.558;127.058;2024-01-27T13:22:52;370.58;;;163.82;;
74715;SDS011;63234;37.558;127.058;2024-01-27T13:25:18;377.40;;;166.18;;
74715;SDS011;63234;37.558;127.058;2024-01-27T13:27:44;373.08;;;165.10;;
74715;SDS011;63234;37.558;127.058;2024-01-27T13:30:11;363.30;;;160.82;;